Time;durP1;ratioP1;P1;durP2;ratioP2;P2;SDS_P1;SDS_P2;PMS_P1;PMS_P2;Temp;Humidity;BMP_temperature;BMP_pressure;BME280_temperature;BME280_humidity;BME280_pressure;Samples;Min_cycle;Max_cycle;Signal;HPM_P1;HPM_P2
2022/01/20 00:03:40;;;;;;;4.10;1.40;;;2.40;99.90;;;;;;6282251;22;20026;-87
2022/01/20 00:09:16;;;;;;;4.07;1.53;;;2.40;99.90;;;;;;6280732;22;20064;-87
2022/01/20 00:28:11;;;;;;;4.60;1.37;;;2.40;99.90;;;;;;6276723;22;20007;-86
2022/01/20 00:30:48;;;;;;;3.50;1.27;;;2.40;99.90;;;;;;6274335;22;20000;-86
2022/01/20 00:33:20;;;;;;;2.77;1.10;;;2.40;99.90;;;;;;6274763;22;20004;-86
2022/01/20 00:38:16;;;;;;;3.80;0.90;;;2.40;99.90;;;;;;6275818;22;20319;-87
2022/01/20 00:40:41;;;;;;;3.70;1.07;;;2.40;99.90;;;;;;6249157;22;20026;-86
2022/01/20 00:43:07;;;;;;;3.17;1.20;;;2.40;99.90;;;;;;6275364;22;20442;-87
2022/01/20 00:45:33;;;;;;;3.07;1.13;;;2.40;99.90;;;;;;6274663;22;20004;-86
2022/01/20 00:47:58;;;;;;;2.30;0.93;;;2.40;99.90;;;;;;6274807;22;20014;-87
2022/01/20 00:50:26;;;;;;;3.83;1.33;;;2.40;99.90;;;;;;6248609;22;20004;-86
2022/01/20 00:52:52;;;;;;;3.13;1.40;;;2.40;99.90;;;;;;6248646;22;20011;-85
2022/01/20 00:55:19;;;;;;;3.57;1.10;;;2.40;99.90;;;;;;6274234;22;20086;-86
2022/01/20 00:57:44;;;;;;;2.87;1.30;;;2.30;99.90;;;;;;6273938;22;20053;-86
2022/01/20 01:00:12;;;;;;;3.07;1.17;;;2.40;99.90;;;;;;6273701;22;20046;-86
2022/01/20 01:02:38;;;;;;;3.57;1.33;;;2.40;99.90;;;;;;6274913;22;20034;-85
2022/01/20 01:05:05;;;;;;;2.90;1.13;;;2.40;99.90;;;;;;6273569;22;20346;-86
2022/01/20 01:10:12;;;;;;;4.97;1.33;;;2.40;99.90;;;;;;6275223;22;20016;-85
2022/01/20 01:12:59;;;;;;;1.57;0.73;;;2.40;99.90;;;;;;6247866;22;20004;-85
2022/01/20 01:15:39;;;;;;;2.97;1.13;;;2.30;99.90;;;;;;6247969;22;20061;-86
2022/01/20 01:23:31;;;;;;;2.20;0.80;;;2.20;99.90;;;;;;6284363;22;20341;-87
2022/01/20 01:25:57;;;;;;;2.93;1.10;;;2.30;99.90;;;;;;6249371;22;20094;-87
2022/01/20 01:28:26;;;;;;;2.53;0.90;;;2.20;99.90;;;;;;6249221;22;20433;-86
2022/01/20 01:33:39;;;;;;;3.37;1.20;;;2.20;99.90;;;;;;6276974;22;20388;-85
2022/01/20 01:36:08;;;;;;;2.23;0.93;;;2.20;99.90;;;;;;6274532;22;20011;-86
2022/01/20 01:38:36;;;;;;;2.33;0.80;;;2.20;99.90;;;;;;6248891;22;20013;-86
2022/01/20 01:41:11;;;;;;;2.87;0.77;;;2.10;99.90;;;;;;6249263;22;20452;-87
2022/01/20 01:43:43;;;;;;;1.80;0.83;;;2.10;99.90;;;;;;6249443;22;20422;-86
2022/01/20 01:46:12;;;;;;;1.98;0.90;;;2.10;99.90;;;;;;6249293;22;20091;-87
2022/01/20 01:48:40;;;;;;;4.10;1.10;;;2.10;99.90;;;;;;6248937;22;20023;-86
2022/01/20 01:51:07;;;;;;;3.50;0.93;;;2.10;99.90;;;;;;6244931;22;20761;-87
2022/01/20 01:53:33;;;;;;;3.40;0.87;;;2.10;99.90;;;;;;6275882;22;20029;-87
2022/01/20 01:55:59;;;;;;;2.47;0.90;;;2.10;99.90;;;;;;6248596;22;20016;-87
2022/01/20 01:58:24;;;;;;;2.63;1.10;;;2.00;99.90;;;;;;6249382;22;20083;-87
2022/01/20 02:00:50;;;;;;;3.80;1.00;;;2.10;99.90;;;;;;6276269;22;20069;-87
2022/01/20 02:03:16;;;;;;;2.70;1.00;;;2.10;99.90;;;;;;6275778;22;20007;-87
2022/01/20 02:06:15;;;;;;;2.43;1.00;;;2.00;99.90;;;;;;6249524;22;20446;-87
2022/01/20 02:08:57;;;;;;;2.23;1.03;;;2.00;99.90;;;;;;6276932;22;20536;-87
2022/01/20 02:19:35;;;;;;;4.03;1.10;;;2.00;99.90;;;;;;6294664;22;20875;-87
2022/01/20 02:22:02;;;;;;;2.80;1.17;;;2.00;99.90;;;;;;6283265;22;20003;-86
2022/01/20 02:24:29;;;;;;;1.60;0.63;;;2.00;99.90;;;;;;6276218;22;20011;-87
2022/01/20 02:26:55;;;;;;;1.90;0.80;;;2.00;99.90;;;;;;6249538;22;20087;-87
2022/01/20 02:29:21;;;;;;;1.90;0.87;;;2.00;99.90;;;;;;6248843;22;20003;-87
2022/01/20 02:31:47;;;;;;;2.87;1.10;;;2.00;99.90;;;;;;6274976;22;20461;-87
2022/01/20 02:34:14;;;;;;;2.60;0.80;;;2.00;99.90;;;;;;6275795;22;20603;-87
2022/01/20 02:36:45;;;;;;;4.53;1.10;;;2.10;99.90;;;;;;6275755;22;20004;-86
2022/01/20 02:39:28;;;;;;;1.87;0.70;;;2.10;99.90;;;;;;6249978;22;20422;-87
2022/01/20 02:44:54;;;;;;;2.20;0.90;;;2.10;99.90;;;;;;6276192;22;20509;-86
2022/01/20 02:47:27;;;;;;;2.35;0.85;;;2.10;99.90;;;;;;6276069;22;20003;-85
2022/01/20 02:49:53;;;;;;;2.13;0.70;;;2.10;99.90;;;;;;6248395;22;20442;-85
2022/01/20 02:52:20;;;;;;;2.50;0.87;;;2.10;99.90;;;;;;6254564;22;19999;-86
2022/01/20 02:54:46;;;;;;;2.40;0.80;;;2.10;99.90;;;;;;6280838;22;20338;-85
2022/01/20 02:57:11;;;;;;;1.70;0.67;;;2.10;99.90;;;;;;6277837;22;20019;-87
2022/01/20 02:59:38;;;;;;;2.03;0.67;;;2.10;99.90;;;;;;6248494;22;20079;-86
2022/01/20 03:02:06;;;;;;;2.83;0.93;;;2.10;99.90;;;;;;6276020;22;20026;-85
2022/01/20 03:04:32;;;;;;;2.50;0.87;;;2.10;99.90;;;;;;6275734;22;20003;-86
2022/01/20 03:06:58;;;;;;;1.93;0.67;;;2.10;99.90;;;;;;6248246;22;20010;-86
2022/01/20 03:09:24;;;;;;;2.23;0.90;;;2.10;99.90;;;;;;6274867;22;20008;-86
2022/01/20 03:11:51;;;;;;;1.80;0.70;;;2.10;99.90;;;;;;6249066;22;20095;-85
2022/01/20 03:14:17;;;;;;;2.40;0.50;;;2.10;99.90;;;;;;6274497;22;20011;-86
2022/01/20 03:16:47;;;;;;;2.93;0.93;;;2.20;99.90;;;;;;6274552;22;20333;-87
2022/01/20 03:19:13;;;;;;;1.60;0.50;;;2.20;99.90;;;;;;6248247;22;20035;-86
2022/01/20 03:21:43;;;;;;;1.53;0.50;;;2.20;99.90;;;;;;6245656;22;20069;-86
2022/01/20 03:24:10;;;;;;;2.23;0.50;;;2.20;99.90;;;;;;6274390;22;20004;-86
2022/01/20 03:26:37;;;;;;;1.00;0.47;;;2.20;99.90;;;;;;6249400;22;20019;-86
2022/01/20 03:29:04;;;;;;;3.40;0.80;;;2.20;99.90;;;;;;6248321;22;19992;-86
2022/01/20 03:31:31;;;;;;;1.80;0.50;;;2.20;99.90;;;;;;6248404;22;20315;-87
2022/01/20 03:33:57;;;;;;;1.30;0.40;;;2.20;99.90;;;;;;6276352;22;20480;-86
2022/01/20 03:36:23;;;;;;;2.27;0.70;;;2.20;99.90;;;;;;6275922;22;20000;-86
2022/01/20 03:38:49;;;;;;;1.23;0.50;;;2.20;99.90;;;;;;6274624;22;20004;-86
2022/01/20 03:41:15;;;;;;;1.33;0.50;;;2.30;99.90;;;;;;6275431;22;20008;-87
2022/01/20 03:43:41;;;;;;;3.47;0.50;;;2.20;99.90;;;;;;6274673;22;20387;-86
2022/01/20 03:46:12;;;;;;;1.10;0.50;;;2.30;99.90;;;;;;6274037;22;20011;-86
2022/01/20 03:48:50;;;;;;;1.30;0.30;;;2.30;99.90;;;;;;6273846;22;20000;-86
2022/01/20 03:51:20;;;;;;;1.50;0.40;;;2.30;99.90;;;;;;6275504;22;20074;-86
2022/01/20 03:53:47;;;;;;;1.27;0.53;;;2.30;99.90;;;;;;6275359;22;20008;-86
2022/01/20 03:56:12;;;;;;;1.87;0.50;;;2.30;99.90;;;;;;6248645;22;20097;-86
2022/01/20 03:58:38;;;;;;;1.77;0.50;;;2.30;99.90;;;;;;6248753;22;20007;-87
2022/01/20 04:01:03;;;;;;;1.87;0.30;;;2.30;99.90;;;;;;6274055;22;20011;-87
2022/01/20 04:03:29;;;;;;;0.90;0.50;;;2.30;99.90;;;;;;6274073;22;20008;-86
2022/01/20 04:05:58;;;;;;;1.13;0.40;;;2.20;99.90;;;;;;6274118;22;20008;-86
2022/01/20 04:08:35;;;;;;;1.47;0.43;;;2.30;99.90;;;;;;6275587;22;20067;-87
2022/01/20 04:11:10;;;;;;;1.30;0.50;;;2.30;99.90;;;;;;6274029;22;20286;-87
2022/01/20 04:13:36;;;;;;;1.90;0.60;;;2.30;99.90;;;;;;6248247;22;20012;-86
2022/01/20 04:16:13;;;;;;;1.70;0.50;;;2.30;99.90;;;;;;6273172;22;20442;-86
2022/01/20 04:18:51;;;;;;;2.67;0.70;;;2.30;99.90;;;;;;6247639;22;20003;-87
2022/01/20 04:21:19;;;;;;;2.60;0.50;;;2.30;99.90;;;;;;6272418;22;20899;-87
2022/01/20 04:23:44;;;;;;;1.10;0.57;;;2.30;99.90;;;;;;6275465;22;20039;-86
2022/01/20 04:26:10;;;;;;;1.90;0.60;;;2.30;99.90;;;;;;6273900;22;20035;-86
2022/01/20 04:28:35;;;;;;;1.40;0.50;;;2.30;99.90;;;;;;6273303;22;20008;-86
2022/01/20 04:31:01;;;;;;;2.53;0.67;;;2.30;99.90;;;;;;6273293;22;20050;-86
2022/01/20 04:33:27;;;;;;;1.57;0.70;;;2.30;99.90;;;;;;6275539;22;20362;-86
2022/01/20 04:35:52;;;;;;;1.43;0.70;;;2.30;99.90;;;;;;6275161;22;20489;-86
2022/01/20 04:38:18;;;;;;;1.80;0.87;;;2.30;99.90;;;;;;6247830;22;20007;-86
2022/01/20 04:40:44;;;;;;;1.70;0.73;;;2.40;99.90;;;;;;6276608;22;20021;-87
2022/01/20 04:43:09;;;;;;;2.73;0.90;;;2.30;99.90;;;;;;6255331;22;20068;-87
2022/01/20 04:45:43;;;;;;;2.20;0.77;;;2.40;99.90;;;;;;6280067;22;20449;-86
2022/01/20 04:59:05;;;;;;;1.23;0.50;;;2.40;99.90;;;;;;6275596;22;20014;-87
2022/01/20 05:01:31;;;;;;;1.20;0.60;;;2.40;99.90;;;;;;6277381;22;20023;-87
2022/01/20 05:03:57;;;;;;;3.07;0.90;;;2.40;99.90;;;;;;6249357;22;20014;-86
2022/01/20 05:06:23;;;;;;;3.33;0.93;;;2.40;99.90;;;;;;6275269;22;20010;-86
2022/01/20 05:08:51;;;;;;;2.43;0.80;;;2.50;99.90;;;;;;6275019;22;20031;-87
2022/01/20 05:11:17;;;;;;;1.60;0.67;;;2.50;99.90;;;;;;6249591;22;20003;-87
2022/01/20 05:13:43;;;;;;;2.07;0.80;;;2.50;99.90;;;;;;6275103;22;20397;-86
2022/01/20 05:16:08;;;;;;;2.33;0.83;;;2.40;99.90;;;;;;6274955;22;20433;-87
2022/01/20 05:18:34;;;;;;;3.90;0.90;;;2.40;99.90;;;;;;6274551;22;20057;-87
2022/01/20 05:21:00;;;;;;;2.13;0.80;;;2.40;99.90;;;;;;6246189;22;20004;-86
2022/01/20 05:23:26;;;;;;;5.47;0.90;;;2.40;99.90;;;;;;6273685;22;20018;-87
2022/01/20 05:25:52;;;;;;;1.63;0.60;;;2.40;99.90;;;;;;6273444;22;20353;-87
2022/01/20 05:28:18;;;;;;;1.50;0.57;;;2.40;99.90;;;;;;6273218;22;20008;-87
2022/01/20 05:30:43;;;;;;;2.10;0.60;;;2.40;99.90;;;;;;6272944;22;20057;-86
2022/01/20 05:33:09;;;;;;;3.10;0.77;;;2.40;99.90;;;;;;6273534;22;20004;-88
2022/01/20 05:35:35;;;;;;;2.83;0.80;;;2.40;99.90;;;;;;6275617;22;20010;-86
2022/01/20 05:38:01;;;;;;;3.30;0.83;;;2.40;99.90;;;;;;6274657;22;20455;-88
2022/01/20 05:40:26;;;;;;;2.80;0.87;;;2.40;99.90;;;;;;6274075;22;20090;-87
2022/01/20 05:42:53;;;;;;;2.23;0.90;;;2.40;99.90;;;;;;6274021;22;20004;-88
2022/01/20 05:45:20;;;;;;;2.63;0.80;;;2.40;99.90;;;;;;6275024;22;20341;-87
2022/01/20 05:47:49;;;;;;;1.63;0.80;;;2.40;99.90;;;;;;6274069;22;20442;-88
2022/01/20 05:50:18;;;;;;;2.80;1.00;;;2.40;99.90;;;;;;6247958;22;20004;-87
2022/01/20 05:52:57;;;;;;;3.33;0.70;;;2.40;99.90;;;;;;6276426;22;20018;-89
2022/01/20 05:55:22;;;;;;;3.87;1.00;;;2.40;99.90;;;;;;6227570;22;20020;-87
2022/01/20 05:57:48;;;;;;;6.30;0.93;;;2.40;99.90;;;;;;6223022;23;20403;-87
2022/01/20 06:00:20;;;;;;;3.10;0.90;;;2.40;99.90;;;;;;6223773;23;20008;-87
2022/01/20 06:05:32;;;;;;;2.53;0.93;;;2.40;99.90;;;;;;6219229;23;20050;-87
2022/01/20 06:07:57;;;;;;;3.07;1.00;;;2.40;99.90;;;;;;6242706;23;20005;-87
2022/01/20 06:10:25;;;;;;;2.20;0.70;;;2.40;99.90;;;;;;6217155;23;19992;-84
2022/01/20 06:12:51;;;;;;;2.00;0.80;;;2.30;99.90;;;;;;6243571;22;20005;-84
2022/01/20 06:15:19;;;;;;;2.73;0.83;;;2.30;99.90;;;;;;6219728;23;20399;-84
2022/01/20 06:17:45;;;;;;;3.27;1.17;;;2.30;99.90;;;;;;6244545;23;20037;-84
2022/01/20 06:20:11;;;;;;;3.50;0.90;;;2.30;99.90;;;;;;6216290;23;20024;-85
2022/01/20 06:22:37;;;;;;;2.67;0.97;;;2.30;99.90;;;;;;6220816;23;20009;-86
2022/01/20 06:25:14;;;;;;;3.43;0.83;;;2.30;99.90;;;;;;6222356;23;20012;-88
2022/01/20 06:27:41;;;;;;;3.47;1.10;;;2.10;99.90;;;;;;6230228;23;20024;-88
2022/01/20 06:30:20;;;;;;;3.77;1.10;;;2.30;99.90;;;;;;6231828;23;20426;-88
2022/01/20 06:33:05;;;;;;;2.03;0.73;;;2.30;99.90;;;;;;6257851;22;20294;-88
2022/01/20 06:35:41;;;;;;;1.87;0.53;;;2.20;99.90;;;;;;6231244;23;19996;-87
2022/01/20 06:38:07;;;;;;;3.53;0.60;;;2.30;99.90;;;;;;6227789;23;20011;-88
2022/01/20 06:40:42;;;;;;;1.33;0.50;;;2.30;99.90;;;;;;6250174;23;20013;-86
2022/01/20 06:43:08;;;;;;;3.40;0.80;;;2.30;99.90;;;;;;6226675;22;20066;-86
2022/01/20 06:45:38;;;;;;;3.50;1.00;;;2.30;99.90;;;;;;6251811;22;20008;-86
2022/01/20 06:48:23;;;;;;;;;;;;;;;;;;;;;
2022/01/20 06:50:55;;;;;;;5.00;0.90;;;2.30;99.90;;;;;;6230049;23;20023;-87
2022/01/20 06:53:21;;;;;;;2.63;0.90;;;2.30;99.90;;;;;;6251053;23;20001;-86
2022/01/20 06:55:47;;;;;;;1.97;0.67;;;2.30;99.90;;;;;;6247048;22;20023;-85
2022/01/20 06:58:13;;;;;;;2.23;0.80;;;2.30;99.90;;;;;;6221252;23;20354;-86
2022/01/20 07:00:38;;;;;;;2.07;0.60;;;2.30;99.90;;;;;;6218820;23;20088;-86
2022/01/20 07:03:09;;;;;;;2.80;0.53;;;2.30;99.90;;;;;;6246866;23;20058;-86
2022/01/20 07:05:41;;;;;;;2.20;0.50;;;2.30;99.90;;;;;;6247349;22;20024;-87
2022/01/20 07:08:19;;;;;;;4.15;0.75;;;2.30;99.90;;;;;;6223618;23;20015;-86
2022/01/20 07:10:50;;;;;;;2.67;0.50;;;2.30;99.90;;;;;;6248133;22;20023;-87
2022/01/20 07:13:21;;;;;;;2.40;0.63;;;2.20;99.90;;;;;;6250420;22;20020;-86
2022/01/20 07:15:58;;;;;;;3.20;0.70;;;2.10;99.90;;;;;;6251308;22;20015;-86
2022/01/20 07:18:23;;;;;;;2.33;0.40;;;2.10;99.90;;;;;;6249179;23;20015;-86
2022/01/20 07:20:52;;;;;;;1.33;0.47;;;2.00;99.90;;;;;;6225076;23;20005;-87
2022/01/20 07:23:21;;;;;;;5.20;0.60;;;2.00;99.90;;;;;;6221507;23;20510;-86
2022/01/20 07:25:47;;;;;;;2.07;0.80;;;2.00;99.90;;;;;;6244596;22;20008;-86
2022/01/20 07:28:18;;;;;;;1.57;0.50;;;1.90;99.90;;;;;;6225100;23;20052;-86
2022/01/20 07:30:47;;;;;;;3.33;1.20;;;1.90;99.90;;;;;;6244559;22;20029;-86
2022/01/20 07:33:25;;;;;;;1.77;0.50;;;1.90;99.90;;;;;;6244385;23;20721;-86
2022/01/20 07:35:56;;;;;;;2.20;0.57;;;1.90;99.90;;;;;;6221453;23;20001;-86
2022/01/20 07:38:21;;;;;;;5.83;0.93;;;1.80;99.90;;;;;;6222295;23;20005;-86
2022/01/20 07:40:51;;;;;;;2.37;0.60;;;1.80;99.90;;;;;;6247845;23;20009;-86
2022/01/20 07:43:17;;;;;;;1.77;0.50;;;1.70;99.90;;;;;;6220680;23;20396;-87
2022/01/20 07:45:53;;;;;;;1.80;0.77;;;1.70;99.90;;;;;;6222867;23;20001;-86
2022/01/20 07:48:23;;;;;;;1.20;0.50;;;1.80;99.90;;;;;;6222792;23;20028;-86
2022/01/20 07:50:49;;;;;;;3.80;0.90;;;1.80;99.90;;;;;;6250577;22;20023;-86
2022/01/20 07:53:15;;;;;;;3.17;0.90;;;1.70;99.90;;;;;;6250811;23;20043;-86
2022/01/20 07:55:41;;;;;;;4.77;1.27;;;1.70;99.90;;;;;;6248820;22;20043;-87
2022/01/20 07:58:09;;;;;;;2.40;0.97;;;1.70;99.90;;;;;;6222409;23;20004;-88
2022/01/20 08:00:35;;;;;;;5.80;1.07;;;1.80;99.90;;;;;;6251805;23;20008;-88
2022/01/20 08:03:01;;;;;;;7.00;1.63;;;1.90;99.90;;;;;;6228960;23;20501;-88
2022/01/20 08:05:27;;;;;;;2.47;0.87;;;1.90;99.90;;;;;;6254020;22;20043;-88
2022/01/20 08:07:53;;;;;;;2.60;0.90;;;2.00;99.90;;;;;;6228217;23;20020;-88
2022/01/20 08:10:25;;;;;;;4.33;0.90;;;2.00;99.90;;;;;;6251739;23;20008;-87
2022/01/20 08:12:53;;;;;;;10.95;1.48;;;2.10;99.90;;;;;;6251830;22;20003;-87
2022/01/20 08:15:25;;;;;;;4.77;1.27;;;2.10;99.90;;;;;;6251384;22;20005;-87
2022/01/20 08:17:51;;;;;;;4.03;1.17;;;2.20;99.90;;;;;;6254171;23;20007;-87
2022/01/20 08:20:17;;;;;;;7.03;1.20;;;2.20;99.90;;;;;;6228737;23;20000;-87
2022/01/20 08:22:49;;;;;;;7.53;1.10;;;2.20;99.90;;;;;;6252837;23;20095;-88
2022/01/20 08:25:19;;;;;;;2.78;0.93;;;2.20;99.90;;;;;;6228639;23;20011;-88
2022/01/20 08:27:51;;;;;;;2.37;0.97;;;2.30;99.90;;;;;;6253125;23;20072;-88
2022/01/20 08:30:20;;;;;;;6.53;1.37;;;2.40;99.90;;;;;;6249925;23;20086;-88
2022/01/20 08:32:51;;;;;;;3.60;0.80;;;2.60;99.90;;;;;;6226293;23;20001;-88
2022/01/20 08:35:21;;;;;;;2.90;0.90;;;2.60;99.90;;;;;;6226879;23;20000;-87
2022/01/20 08:37:50;;;;;;;5.30;1.20;;;2.60;99.90;;;;;;6251306;23;20015;-88
2022/01/20 08:40:21;;;;;;;3.87;1.10;;;2.60;99.90;;;;;;6251966;23;20040;-88
2022/01/20 08:42:53;;;;;;;2.15;0.70;;;2.60;99.90;;;;;;6229532;23;19997;-88
2022/01/20 08:45:25;;;;;;;2.93;1.00;;;2.60;99.90;;;;;;6253181;22;20065;-87
2022/01/20 08:47:59;;;;;;;4.00;1.02;;;2.60;99.90;;;;;;6228002;23;20240;-89
2022/01/20 08:50:40;;;;;;;6.20;1.30;;;2.60;99.90;;;;;;6230296;23;19992;-88
2022/01/20 08:53:09;;;;;;;6.37;1.33;;;2.60;99.90;;;;;;6254511;22;19997;-89
2022/01/20 08:55:38;;;;;;;3.63;1.23;;;2.60;99.90;;;;;;6250326;22;20008;-88
2022/01/20 08:58:14;;;;;;;6.43;1.07;;;2.60;99.90;;;;;;6224114;23;20007;-88
2022/01/20 09:00:52;;;;;;;3.07;1.10;;;2.60;99.90;;;;;;6196863;23;20009;-88
2022/01/20 09:07:16;;;;;;;4.40;1.33;;;2.70;99.90;;;;;;6222707;23;20015;-89
2022/01/20 09:10:00;;;;;;;3.37;0.77;;;2.70;99.90;;;;;;6232663;23;20012;-88
2022/01/20 09:17:48;;;;;;;4.40;1.47;;;2.80;99.90;;;;;;6231485;23;20020;-88
2022/01/20 09:20:27;;;;;;;4.20;1.07;;;2.80;99.90;;;;;;6206964;23;20039;-87
2022/01/20 09:22:58;;;;;;;6.10;1.17;;;2.90;99.90;;;;;;6230220;23;20005;-86
2022/01/20 09:25:32;;;;;;;4.40;0.90;;;2.90;99.90;;;;;;6229848;23;20004;-87
2022/01/20 09:27:59;;;;;;;3.17;1.07;;;3.00;99.90;;;;;;6200647;23;20060;-86
2022/01/20 09:30:29;;;;;;;6.13;1.10;;;3.10;99.90;;;;;;6222663;23;20001;-86
2022/01/20 09:33:11;;;;;;;14.23;1.00;;;3.10;99.90;;;;;;6223732;23;20005;-85
2022/01/20 09:35:45;;;;;;;7.65;1.13;;;3.20;99.90;;;;;;6227124;23;20056;-86
2022/01/20 09:38:15;;;;;;;2.70;0.80;;;3.20;99.90;;;;;;6198290;23;20011;-85
2022/01/20 09:40:47;;;;;;;3.60;1.00;;;3.20;99.90;;;;;;6197272;23;20011;-86
2022/01/20 09:43:16;;;;;;;3.30;1.10;;;3.20;99.90;;;;;;6197799;23;20000;-86
2022/01/20 09:45:46;;;;;;;2.87;0.97;;;3.30;99.90;;;;;;6225824;23;20015;-86
2022/01/20 09:48:15;;;;;;;3.80;1.20;;;3.40;99.90;;;;;;6228057;23;19997;-86
2022/01/20 09:50:49;;;;;;;6.80;1.30;;;3.40;99.90;;;;;;6226887;23;20023;-86
2022/01/20 09:53:16;;;;;;;3.57;0.80;;;3.40;99.90;;;;;;6229742;23;19997;-86
2022/01/20 09:55:42;;;;;;;4.50;0.90;;;3.50;99.90;;;;;;6229312;23;20009;-86
2022/01/20 09:58:14;;;;;;;10.27;1.50;;;3.50;99.90;;;;;;6227460;23;20008;-87
2022/01/20 10:00:48;;;;;;;;;;;3.40;99.90;;;;;;6204294;23;20079;-86
2022/01/20 10:03:24;;;;;;;10.57;1.50;;;3.40;99.90;;;;;;6230154;23;20330;-86
2022/01/20 10:09:09;;;;;;;4.87;1.00;;;3.60;99.90;;;;;;6199945;23;20004;-86
2022/01/20 10:11:59;;;;;;;3.97;0.80;;;3.60;99.90;;;;;;6207792;23;19997;-89
2022/01/20 10:14:39;;;;;;;5.00;0.90;;;3.60;99.90;;;;;;6230675;23;20075;-88
2022/01/20 10:17:19;;;;;;;4.87;1.03;;;3.60;99.90;;;;;;6205466;23;20332;-88
2022/01/20 10:20:05;;;;;;;6.13;1.03;;;3.60;99.90;;;;;;6230706;23;20031;-88
2022/01/20 10:22:47;;;;;;;;;;;;;;;;;;;;;
2022/01/20 10:25:19;;;;;;;3.40;1.00;;;3.60;99.90;;;;;;6207413;23;20038;-88
2022/01/20 10:27:58;;;;;;;2.90;0.90;;;3.60;99.90;;;;;;6228227;23;20060;-86
2022/01/20 10:39:42;;;;;;;3.00;0.70;;;3.70;99.90;;;;;;6225877;22;20024;-86
2022/01/20 10:42:13;;;;;;;3.80;1.00;;;3.80;99.90;;;;;;6251668;23;20416;-86
2022/01/20 10:45:18;;;;;;;3.40;0.87;;;4.00;99.90;;;;;;6248364;22;20000;-88
2022/01/20 10:48:06;;;;;;;3.57;0.80;;;4.00;99.90;;;;;;6195342;23;20001;-86
2022/01/20 10:51:29;;;;;;;4.20;0.90;;;4.00;99.90;;;;;;6219331;23;20011;-87
2022/01/20 10:54:13;;;;;;;2.60;0.80;;;3.90;99.90;;;;;;6229861;23;20003;-86
2022/01/20 10:57:49;;;;;;;6.50;1.23;;;4.00;99.90;;;;;;6225898;23;20016;-87
2022/01/20 11:00:19;;;;;;;6.97;1.10;;;3.90;99.90;;;;;;6117691;23;20005;-87
2022/01/20 11:02:58;;;;;;;5.20;0.93;;;3.80;99.90;;;;;;6227703;23;20062;-87
2022/01/20 11:05:29;;;;;;;4.17;0.80;;;3.90;99.90;;;;;;6227571;23;20020;-87
2022/01/20 11:08:10;;;;;;;4.20;1.00;;;3.90;99.90;;;;;;6229675;23;20003;-86
2022/01/20 11:10:39;;;;;;;7.00;0.80;;;3.90;99.90;;;;;;6227927;23;20490;-86
2022/01/20 11:13:23;;;;;;;2.13;0.70;;;4.00;99.90;;;;;;6227927;23;20001;-86
2022/01/20 11:16:02;;;;;;;2.13;0.80;;;4.00;99.90;;;;;;6227489;23;20477;-87
2022/01/20 11:18:29;;;;;;;4.60;1.10;;;4.00;99.90;;;;;;6228886;23;20028;-85
2022/01/20 11:21:02;;;;;;;2.83;0.77;;;4.00;99.90;;;;;;6252358;23;20020;-87
2022/01/20 11:23:45;;;;;;;4.20;0.60;;;4.00;99.90;;;;;;6226286;23;20008;-86
2022/01/20 11:26:20;;;;;;;6.23;1.00;;;4.00;99.90;;;;;;6228358;23;20000;-87
2022/01/20 11:29:07;;;;;;;3.43;1.40;;;3.90;99.90;;;;;;6228843;23;19993;-87
2022/01/20 11:31:39;;;;;;;1.30;0.50;;;3.90;99.90;;;;;;6227890;23;20007;-87
2022/01/20 11:34:35;;;;;;;3.42;0.98;;;3.80;99.90;;;;;;6228289;23;20000;-87
2022/01/20 11:37:24;;;;;;;4.83;1.00;;;3.80;99.90;;;;;;6225827;23;20001;-89
2022/01/20 11:40:16;;;;;;;4.43;0.70;;;3.80;99.90;;;;;;6230314;23;20068;-89
2022/01/20 11:43:08;;;;;;;6.23;1.07;;;3.80;99.90;;;;;;6230484;23;20000;-89
2022/01/20 11:45:37;;;;;;;4.45;0.98;;;3.80;99.90;;;;;;6230236;23;20013;-89
2022/01/20 11:48:21;;;;;;;5.00;1.00;;;3.80;99.90;;;;;;6231796;23;20000;-89
2022/01/20 11:51:07;;;;;;;3.30;1.30;;;3.90;99.90;;;;;;6230345;23;20064;-88
2022/01/20 11:53:41;;;;;;;3.83;1.23;;;3.90;99.90;;;;;;6230606;23;20019;-88
2022/01/20 11:56:09;;;;;;;3.57;1.00;;;3.90;99.90;;;;;;6206349;23;20016;-89
2022/01/20 11:58:51;;;;;;;6.23;1.23;;;4.00;99.90;;;;;;6268338;22;20071;-91
2022/01/20 12:01:51;;;;;;;2.85;0.68;;;4.10;99.90;;;;;;6270000;22;20024;-92
2022/01/20 12:04:40;;;;;;;3.47;0.90;;;4.20;99.90;;;;;;6270374;22;20027;-92
2022/01/20 12:07:12;;;;;;;3.37;0.80;;;4.10;99.90;;;;;;6213922;23;20013;-93
2022/01/20 12:09:40;;;;;;;5.43;0.90;;;4.30;99.90;;;;;;6214536;23;20435;-92
2022/01/20 12:12:30;;;;;;;2.10;0.70;;;4.30;99.90;;;;;;6213753;23;20008;-93
2022/01/20 12:15:18;;;;;;;3.13;1.13;;;4.30;99.90;;;;;;6206099;23;20027;-93
2022/01/20 12:18:15;;;;;;;2.87;0.60;;;4.40;99.90;;;;;;6214738;23;19997;-93
2022/01/20 12:20:46;;;;;;;2.83;0.70;;;4.50;99.90;;;;;;6215062;23;20000;-93
2022/01/20 12:23:27;;;;;;;2.33;0.35;;;4.50;99.90;;;;;;6214997;23;20011;-92
2022/01/20 12:26:04;;;;;;;6.03;0.80;;;4.40;99.90;;;;;;6213727;23;20005;-93
2022/01/20 12:28:33;;;;;;;3.40;0.47;;;4.30;99.90;;;;;;6212438;23;20005;-93
2022/01/20 12:31:17;;;;;;;3.37;0.63;;;4.10;99.90;;;;;;6213487;23;20008;-93
2022/01/20 12:34:01;;;;;;;4.17;0.80;;;4.10;99.90;;;;;;6213426;23;20001;-93
2022/01/20 12:36:41;;;;;;;2.63;0.80;;;4.20;99.90;;;;;;6213358;23;20012;-93
2022/01/20 12:39:46;;;;;;;4.13;0.60;;;4.00;99.90;;;;;;6213533;23;20032;-93
2022/01/20 12:42:22;;;;;;;1.80;0.50;;;4.00;99.90;;;;;;6213514;23;20110;-92
2022/01/20 12:44:50;;;;;;;1.50;0.30;;;3.60;99.90;;;;;;6213174;23;20335;-92
2022/01/20 12:47:31;;;;;;;1.27;0.40;;;3.30;99.90;;;;;;6212956;23;20000;-92
2022/01/20 12:50:16;;;;;;;;;;;;;;;;;;;;;
2022/01/20 12:52:58;;;;;;;1.90;0.60;;;2.60;99.90;;;;;;6213222;23;20084;-91
2022/01/20 12:55:26;;;;;;;2.37;0.30;;;2.40;99.90;;;;;;6214539;23;20001;-92
2022/01/20 12:58:20;;;;;;;0.73;0.30;;;2.20;99.90;;;;;;6215320;23;20004;-91
2022/01/20 13:01:18;;;;;;;6.03;0.53;;;2.10;99.90;;;;;;6239169;23;20071;-92
2022/01/20 13:04:05;;;;;;;1.13;0.30;;;1.90;99.90;;;;;;6239477;23;20055;-93
2022/01/20 13:06:35;;;;;;;5.03;0.70;;;1.80;99.90;;;;;;6213296;23;20008;-92
2022/01/20 13:09:10;;;;;;;3.87;0.30;;;1.60;99.90;;;;;;6212615;23;20029;-94
2022/01/20 13:11:41;;;;;;;3.67;0.70;;;1.70;99.90;;;;;;6211533;23;20001;-92
2022/01/20 13:14:14;;;;;;;3.03;0.67;;;1.70;99.90;;;;;;6214555;23;20001;-92
2022/01/20 13:16:52;;;;;;;;;;;1.70;99.90;;;;;;6222303;23;20012;-91
2022/01/20 13:19:40;;;;;;;5.00;0.77;;;1.60;99.90;;;;;;6220019;23;19908;-92
2022/01/20 13:22:20;;;;;;;5.30;0.43;;;1.60;99.90;;;;;;6220224;23;20016;-91
2022/01/20 13:24:46;;;;;;;5.77;0.50;;;1.60;99.90;;;;;;6218953;23;20030;-92
2022/01/20 13:27:17;;;;;;;2.37;0.40;;;1.60;99.90;;;;;;6215175;23;20005;-90
2022/01/20 13:29:49;;;;;;;1.93;0.43;;;1.60;99.90;;;;;;6214377;23;20308;-89
2022/01/20 13:32:16;;;;;;;1.75;0.30;;;1.60;99.90;;;;;;6214039;23;20442;-90
2022/01/20 13:34:58;;;;;;;4.87;0.67;;;1.60;99.90;;;;;;6213064;23;20055;-90
2022/01/20 13:37:25;;;;;;;2.10;0.50;;;1.70;99.90;;;;;;6213941;23;20004;-90
2022/01/20 13:39:57;;;;;;;8.90;0.73;;;1.70;99.90;;;;;;6212882;23;20012;-91
2022/01/20 13:42:45;;;;;;;1.65;0.47;;;1.80;99.90;;;;;;6211451;23;20015;-90
2022/01/20 13:45:17;;;;;;;3.50;0.57;;;1.70;99.90;;;;;;6212977;23;20015;-91
2022/01/20 13:47:54;;;;;;;2.33;0.60;;;1.80;99.90;;;;;;6211097;23;20316;-91
2022/01/20 13:50:37;;;;;;;2.97;1.00;;;1.80;99.90;;;;;;6211539;23;20004;-91
2022/01/20 13:53:23;;;;;;;5.03;0.63;;;1.80;99.90;;;;;;6212298;23;20032;-92
2022/01/20 13:55:49;;;;;;;2.20;0.70;;;1.80;99.90;;;;;;6210939;23;20013;-91
2022/01/20 13:58:22;;;;;;;3.93;0.60;;;1.80;99.90;;;;;;6210229;23;20496;-90
2022/01/20 14:00:48;;;;;;;5.83;1.00;;;1.90;99.90;;;;;;6235571;23;20125;-91
2022/01/20 14:03:14;;;;;;;2.43;0.60;;;1.90;99.90;;;;;;6208535;23;20008;-90
2022/01/20 14:05:41;;;;;;;3.00;0.73;;;1.90;99.90;;;;;;6207217;23;20019;-90
2022/01/20 14:08:07;;;;;;;4.40;0.90;;;2.00;99.90;;;;;;6208917;23;20029;-90
2022/01/20 14:10:33;;;;;;;3.67;0.77;;;2.00;99.90;;;;;;6211163;23;20015;-90
2022/01/20 14:12:59;;;;;;;2.27;0.70;;;2.00;99.90;;;;;;6209490;23;20744;-90
2022/01/20 14:15:27;;;;;;;1.57;0.67;;;2.00;99.90;;;;;;6210154;23;20319;-90
2022/01/20 14:17:56;;;;;;;2.87;0.70;;;2.00;99.90;;;;;;6212397;23;20004;-90
2022/01/20 14:20:28;;;;;;;5.40;0.87;;;1.90;99.90;;;;;;6211151;23;20015;-92
2022/01/20 14:22:55;;;;;;;2.78;0.70;;;1.90;99.90;;;;;;6212031;23;20004;-91
2022/01/20 14:25:23;;;;;;;3.90;0.63;;;1.90;99.90;;;;;;6212377;23;20012;-91
2022/01/20 14:27:51;;;;;;;3.50;1.07;;;1.80;99.90;;;;;;6215949;23;20001;-91
2022/01/20 14:30:19;;;;;;;1.50;0.50;;;1.90;99.90;;;;;;6210802;23;20012;-91
2022/01/20 14:32:47;;;;;;;5.57;0.90;;;2.00;99.90;;;;;;6211369;23;20447;-91
2022/01/20 14:35:13;;;;;;;4.87;1.10;;;1.90;99.90;;;;;;6212202;23;20000;-91
2022/01/20 14:37:43;;;;;;;5.13;0.97;;;2.10;99.90;;;;;;6212720;23;20096;-91
2022/01/20 14:40:15;;;;;;;6.60;1.13;;;1.80;99.90;;;;;;6211456;23;20454;-90
2022/01/20 14:42:42;;;;;;;3.60;0.77;;;1.90;99.90;;;;;;6212556;23;20461;-91
2022/01/20 14:45:09;;;;;;;5.30;1.00;;;1.90;99.90;;;;;;6210535;23;20015;-91
2022/01/20 14:47:36;;;;;;;5.93;1.50;;;1.90;99.90;;;;;;6210675;23;20004;-91